Fort Walton Beach, FL

12:55 PM CST on November 27, 2014 (GMT -0600)
Cinco Bayou - Pocahontas Dr. | Change Station
CLOSE
Current Station
Personal Weather Station
Location: Fort Walton Beach, FL
Elevation: 16 ft
Nearby Weather Stations

Elev 16 ft 30.43 °N, 86.62 °W | Updated 37 seconds ago

Clear
Clear
57.6 °F
Feels Like 57.6 °F
N
3.0
Wind Variable Wind from North
Gusts 15.0 mph

Today
High -- | Low -- °F
--% Chance of Precip.
Yesterday
High -- | Low -- °F
Precip. -- in
6:22 AM 4:45 PM
Waxing Crescent, 32% visible
Pressure 30.33 in
Visibility 10.0 miles
Clouds Clear
Dew Point 38 °F
Humidity 48%
Rainfall 0.00 in
Snow Depth Not available.
UV 5 out of 12
Pollen 2.60 out of 12
Air Quality Not available.
Flu Activity Not available.
METAR KHRT 271758Z AUTO 35011G17KT 320V060 10SM CLR 15/M03 A3032 RMK AO2 SLP269 T01501033 10151 20083 58012 $

More Conditions Fewer Conditions

Pressure 30.33 in
Visibility 10.0 miles
Clouds Clear
Dew Point 38 °F
Humidity 48%
Rainfall 0.00 in
Snow Depth Not available.
UV 5 out of 12
Pollen 2.60 out of 12
Air Quality Not available.
Flu Activity Not available.
METAR KHRT 271758Z AUTO 35011G17KT 320V060 10SM CLR 15/M03 A3032 RMK AO2 SLP269 T01501033 10151 20083 58012 $

More Conditions Fewer Conditions

10-Day Weather Forecast

Almanac

Astronomy

Nov. 27, 2014 Rise Set
Actual Time
Civil Twilight
Nautical Twilight
Astronomical Twilight
Moon
Length of Visible Light
Length of Day
Tomorrow will be .
, % of the Moon is Illuminated

Today's Extremes

State Highs State Lows

Community

WunderPhotos

Upload Photos

1,774,086 photos uploaded!

WunderBlogs® & News

Nearby

Air Quality

  Air Quality AQ Index Pollutant
Not available.

Snow Depth

Station Depth Elevation

Earthquake Activity

City Distance Mag. Time & Date
Minimum magnitude displayed is 2.5.

Coastal Water Temperatures

Place Temperature

Nearby Weather Stations